< < Back
Terminal Aerodrome Forecast


Current Version              Previous Versions:   1  2  3  4  5  6  7  8  9  

Terminal Aerodrome Forecast

710
FTUS44 KMOB 270527
TAFMOB
TAF
KMOB 270527Z 2706/2806 27004KT P6SM BKN015 OVC030
     FM270900 33011G18KT P6SM BKN015 OVC030
     FM271600 34013G20KT P6SM SCT030=

Latest METAR

290
SAUS80 KWBC 280000 RRA
MTRMOB
METAR KMOB 272356Z 33014G20KT 10SM FEW250 16/01 A3002 RMK AO2 SLP165
T01610006 10200 20161 53019


USA.gov is the U.S. government's official web portal to all federal, state and local government web resources and services.